Time;durP1;ratioP1;P1;durP2;ratioP2;P2;SDS_P1;SDS_P2;PMS_P1;PMS_P2;Temp;Humidity;BMP_temperature;BMP_pressure;BME280_temperature;BME280_humidity;BME280_pressure;Samples;Min_cycle;Max_cycle;Signal;HPM_P1;HPM_P2
2022/11/08 00:03:41;;;;;;;2.72;1.30;;;13.40;99.90;;;;;;20836387;28;20052;-39
2022/11/08 00:14:01;;;;;;;1.52;0.50;;;13.30;99.90;;;;;;20842907;28;21233;-38
2022/11/08 00:24:02;;;;;;;1.83;0.80;;;13.10;99.90;;;;;;20809011;28;20049;-37
2022/11/08 00:34:04;;;;;;;2.53;0.50;;;12.90;99.90;;;;;;20826595;28;20448;-37
2022/11/08 00:44:05;;;;;;;1.10;0.63;;;12.80;99.90;;;;;;20817266;28;20057;-37
2022/11/08 00:54:07;;;;;;;2.15;0.70;;;12.60;99.90;;;;;;20818448;28;20742;-37
2022/11/08 01:04:09;;;;;;;4.45;0.82;;;12.50;99.90;;;;;;20809250;28;20354;-37
2022/11/08 01:14:11;;;;;;;4.35;1.00;;;12.40;99.90;;;;;;20808544;28;20041;-38
2022/11/08 01:24:12;;;;;;;4.38;0.88;;;12.30;99.90;;;;;;20810753;28;20106;-38
2022/11/08 01:34:13;;;;;;;6.03;0.93;;;12.20;99.90;;;;;;20808112;28;20049;-37
2022/11/08 01:44:16;;;;;;;7.60;1.52;;;12.10;99.90;;;;;;20813439;28;20044;-38
2022/11/08 01:54:23;;;;;;;1.77;0.80;;;12.10;99.90;;;;;;20800354;28;20052;-38
2022/11/08 02:04:24;;;;;;;2.03;0.80;;;12.10;99.90;;;;;;20804964;28;20495;-38
2022/11/08 02:14:25;;;;;;;4.63;2.15;;;12.10;99.90;;;;;;20805081;28;20104;-38
2022/11/08 02:24:27;;;;;;;5.28;1.77;;;12.20;99.90;;;;;;20801546;28;20096;-38
2022/11/08 02:34:56;;;;;;;3.80;1.35;;;12.20;99.90;;;;;;20813973;28;20048;-37
2022/11/08 02:44:57;;;;;;;1.63;0.82;;;12.20;99.90;;;;;;20816231;28;20710;-38
2022/11/08 02:54:58;;;;;;;4.65;1.25;;;12.10;99.90;;;;;;20816643;28;20320;-38
2022/11/08 03:04:59;;;;;;;1.98;1.02;;;12.00;99.90;;;;;;20821558;28;20042;-38
2022/11/08 03:15:01;;;;;;;1.77;0.90;;;11.90;99.90;;;;;;20827474;28;20071;-38
2022/11/08 03:25:02;;;;;;;2.80;1.13;;;11.90;99.90;;;;;;20809342;28;20071;-38
2022/11/08 03:35:03;;;;;;;3.33;1.00;;;11.90;99.90;;;;;;20817636;28;20029;-38
2022/11/08 03:45:04;;;;;;;2.80;0.52;;;11.90;99.90;;;;;;20822769;28;20100;-38
2022/11/08 03:55:06;;;;;;;2.58;1.08;;;11.90;99.90;;;;;;20835731;28;20423;-38
2022/11/08 04:05:09;;;;;;;5.13;1.73;;;11.80;99.90;;;;;;20826885;28;20076;-38
2022/11/08 04:15:13;;;;;;;1.63;0.55;;;11.90;99.90;;;;;;20770816;28;20044;-38
2022/11/08 04:25:14;;;;;;;2.47;0.80;;;11.90;99.90;;;;;;20750320;28;20103;-37
2022/11/08 04:35:15;;;;;;;1.95;0.88;;;11.90;99.90;;;;;;20743279;28;20052;-38
2022/11/08 04:45:16;;;;;;;1.98;0.82;;;12.00;99.90;;;;;;20771373;28;20785;-37
2022/11/08 04:55:18;;;;;;;4.45;1.50;;;12.10;99.90;;;;;;20756944;28;20635;-37
2022/11/08 05:05:20;;;;;;;1.20;0.35;;;12.20;99.90;;;;;;20743329;28;20080;-38
2022/11/08 05:15:21;;;;;;;2.67;1.02;;;12.20;99.90;;;;;;20833324;28;20080;-37
2022/11/08 05:25:22;;;;;;;3.05;1.00;;;12.20;99.90;;;;;;20838741;28;20037;-37
2022/11/08 05:35:23;;;;;;;0.90;0.30;;;12.10;99.90;;;;;;20839747;28;20051;-37
2022/11/08 05:45:24;;;;;;;3.95;0.70;;;12.10;99.90;;;;;;20830896;28;20095;-37
2022/11/08 05:55:25;;;;;;;0.85;0.47;;;12.10;99.90;;;;;;20844213;28;20065;-38
2022/11/08 06:05:26;;;;;;;0.98;0.40;;;12.10;99.90;;;;;;20812873;28;20190;-38
2022/11/08 06:15:27;;;;;;;1.80;0.60;;;12.10;99.90;;;;;;20776116;28;20029;-37
2022/11/08 06:25:28;;;;;;;0.85;0.40;;;12.00;99.90;;;;;;20794014;28;20049;-37
2022/11/08 06:35:29;;;;;;;0.75;0.40;;;11.90;99.90;;;;;;20771222;28;20038;-38
2022/11/08 06:45:30;;;;;;;1.23;0.70;;;11.90;99.90;;;;;;20782202;28;20431;-38
2022/11/08 06:55:32;;;;;;;2.35;0.93;;;12.00;99.90;;;;;;20774587;28;20122;-37
2022/11/08 07:05:34;;;;;;;1.58;1.10;;;12.00;99.90;;;;;;20737267;28;20061;-37
2022/11/08 07:15:36;;;;;;;3.53;0.60;;;12.00;99.90;;;;;;20746034;28;20814;-38
2022/11/08 07:25:37;;;;;;;4.18;0.65;;;11.90;99.90;;;;;;20752055;28;20183;-37
2022/11/08 07:35:38;;;;;;;2.90;0.50;;;12.10;99.90;;;;;;20789780;28;20618;-38
2022/11/08 07:45:40;;;;;;;1.60;0.88;;;12.00;99.90;;;;;;20782169;28;20419;-38
2022/11/08 07:55:41;;;;;;;0.85;0.20;;;12.10;99.90;;;;;;20788322;28;21259;-37
2022/11/08 08:05:44;;;;;;;1.10;0.50;;;12.20;99.90;;;;;;20786919;28;20050;-38
2022/11/08 08:15:45;;;;;;;1.33;0.50;;;12.10;99.90;;;;;;20788991;28;20041;-38
2022/11/08 08:25:46;;;;;;;0.80;0.30;;;12.20;99.90;;;;;;20785557;28;20509;-38
2022/11/08 08:35:47;;;;;;;0.50;0.20;;;12.20;99.90;;;;;;20782975;28;20042;-37
2022/11/08 08:45:48;;;;;;;0.70;0.30;;;12.40;99.90;;;;;;20774651;28;20041;-38
2022/11/08 08:55:52;;;;;;;1.95;0.55;;;12.60;99.90;;;;;;20808362;28;20075;-38
2022/11/08 09:05:59;;;;;;;2.30;0.68;;;12.80;99.90;;;;;;20803448;28;20062;-37
2022/11/08 09:16:01;;;;;;;2.47;1.33;;;12.90;99.90;;;;;;20787193;28;20495;-36
2022/11/08 09:26:04;;;;;;;3.05;0.45;;;12.90;99.90;;;;;;20795110;28;20096;-37
2022/11/08 09:36:07;;;;;;;2.38;0.30;;;13.00;99.90;;;;;;20764242;28;20033;-37
2022/11/08 09:46:10;;;;;;;1.70;0.40;;;13.00;99.90;;;;;;20784991;28;20104;-37
2022/11/08 09:56:23;;;;;;;3.70;1.55;;;13.20;99.90;;;;;;20780068;28;20058;-38
2022/11/08 10:06:44;;;;;;;2.80;0.80;;;13.40;99.90;;;;;;20770204;28;20069;-38
2022/11/08 10:16:55;;;;;;;2.03;0.50;;;13.50;99.90;;;;;;20741743;28;20938;-38
2022/11/08 10:26:58;;;;;;;0.70;0.30;;;13.70;99.90;;;;;;20747619;28;20139;-37
2022/11/08 10:37:05;;;;;;;0.70;0.30;;;13.60;99.90;;;;;;20750791;28;20185;-37
2022/11/08 10:47:22;;;;;;;1.00;0.30;;;13.60;99.90;;;;;;20749686;28;20562;-38
2022/11/08 10:57:24;;;;;;;4.60;0.35;;;13.60;99.90;;;;;;20763843;28;20155;-37
2022/11/08 11:07:33;;;;;;;4.45;0.95;;;13.80;99.90;;;;;;20766165;28;20045;-38
2022/11/08 11:17:35;;;;;;;0.80;0.52;;;14.00;99.90;;;;;;20824276;28;20088;-38
2022/11/08 11:27:37;;;;;;;2.35;0.95;;;14.20;99.90;;;;;;20791957;28;20170;-38
2022/11/08 11:37:43;;;;;;;0.90;0.28;;;14.70;99.90;;;;;;20820069;28;20049;-37
2022/11/08 11:47:52;;;;;;;0.98;0.30;;;15.00;99.90;;;;;;20824942;28;20887;-37
2022/11/08 11:58:27;;;;;;;1.05;0.30;;;14.90;99.90;;;;;;20823692;28;20076;-37
2022/11/08 12:08:44;;;;;;;1.58;0.40;;;15.60;99.90;;;;;;20808894;28;20074;-38
2022/11/08 12:18:58;;;;;;;2.80;0.93;;;16.40;99.90;;;;;;20831288;28;21200;-37
2022/11/08 12:29:16;;;;;;;1.55;0.65;;;16.70;99.90;;;;;;20837070;28;20550;-37
2022/11/08 12:39:39;;;;;;;1.85;0.88;;;16.50;99.90;;;;;;20823608;28;20131;-38
2022/11/08 12:50:15;;;;;;;0.63;0.30;;;16.50;99.90;;;;;;20819593;28;21856;-37
2022/11/08 13:00:17;;;;;;;2.25;0.85;;;16.40;99.90;;;;;;20841844;28;20621;-37
2022/11/08 13:10:54;;;;;;;0.35;0.20;;;15.80;99.90;;;;;;20808019;28;20151;-37
2022/11/08 13:20:55;;;;;;;1.75;0.70;;;15.70;99.90;;;;;;20829677;28;20876;-36
2022/11/08 13:31:07;;;;;;;1.13;0.22;;;15.60;99.90;;;;;;20828138;28;20029;-36
2022/11/08 13:41:24;;;;;;;5.90;1.73;;;15.40;99.90;;;;;;20825164;28;20099;-37
2022/11/08 13:51:36;;;;;;;2.08;0.60;;;15.30;99.90;;;;;;20817592;28;20038;-36
2022/11/08 14:01:46;;;;;;;1.30;0.45;;;15.30;99.90;;;;;;20822048;28;20041;-37
2022/11/08 14:11:47;;;;;;;1.73;0.43;;;15.10;99.90;;;;;;20818587;28;20859;-37
2022/11/08 14:21:51;;;;;;;1.67;0.52;;;15.10;99.90;;;;;;20826068;28;20053;-37
2022/11/08 14:32:12;;;;;;;1.70;0.65;;;15.00;99.90;;;;;;20817603;28;20148;-37
2022/11/08 14:42:22;;;;;;;2.55;0.63;;;15.00;99.90;;;;;;20850539;28;20053;-37
2022/11/08 14:52:29;;;;;;;1.23;0.60;;;15.10;99.90;;;;;;20851430;28;20049;-37
2022/11/08 15:02:31;;;;;;;1.10;0.22;;;15.00;99.90;;;;;;20869730;28;20088;-37
2022/11/08 15:12:32;;;;;;;4.60;0.75;;;15.10;99.90;;;;;;20849515;28;20037;-37
2022/11/08 15:22:35;;;;;;;4.28;1.02;;;15.10;99.90;;;;;;20842602;28;20044;-37
2022/11/08 15:32:38;;;;;;;1.15;0.52;;;15.10;99.90;;;;;;20860964;28;20271;-39
2022/11/08 15:42:43;;;;;;;2.72;0.95;;;15.00;99.90;;;;;;20854244;28;20107;-38
2022/11/08 15:52:46;;;;;;;0.88;0.32;;;14.70;99.90;;;;;;20814279;28;21843;-38
2022/11/08 16:02:47;;;;;;;1.00;0.60;;;14.60;99.90;;;;;;20832994;28;20049;-38
2022/11/08 16:12:48;;;;;;;1.73;0.60;;;14.50;99.90;;;;;;20822757;28;20052;-39
2022/11/08 16:22:50;;;;;;;2.42;0.80;;;14.30;99.90;;;;;;20822493;28;20065;-38
2022/11/08 16:32:51;;;;;;;2.10;0.75;;;14.30;99.90;;;;;;20836527;28;20052;-38
2022/11/08 16:42:52;;;;;;;1.38;0.55;;;14.30;99.90;;;;;;20823308;28;20318;-38
2022/11/08 16:52:53;;;;;;;1.23;0.75;;;14.20;99.90;;;;;;20831882;28;20040;-38
2022/11/08 17:02:55;;;;;;;3.55;0.85;;;14.10;99.90;;;;;;20804296;28;20040;-38
2022/11/08 17:12:56;;;;;;;1.05;0.38;;;14.10;99.90;;;;;;20789845;28;20109;-38
2022/11/08 17:22:57;;;;;;;2.13;0.70;;;14.00;99.90;;;;;;20786565;28;20072;-39
2022/11/08 17:32:58;;;;;;;2.92;1.23;;;14.00;99.90;;;;;;20783511;28;20042;-38
2022/11/08 17:42:59;;;;;;;4.75;1.60;;;14.00;99.90;;;;;;20802747;28;20052;-38
2022/11/08 17:53:00;;;;;;;1.42;0.70;;;14.00;99.90;;;;;;20781594;28;20041;-38
2022/11/08 18:03:01;;;;;;;1.77;0.90;;;14.00;99.90;;;;;;20783293;28;20190;-38
2022/11/08 18:13:02;;;;;;;1.85;0.70;;;14.10;99.90;;;;;;20787057;28;20052;-38
2022/11/08 18:23:03;;;;;;;1.30;0.63;;;14.20;99.90;;;;;;20805416;28;20069;-38
2022/11/08 18:33:04;;;;;;;2.05;0.75;;;14.10;99.90;;;;;;20801319;28;20122;-38
2022/11/08 18:43:05;;;;;;;1.63;0.80;;;14.00;99.90;;;;;;20783256;28;20053;-38
2022/11/08 18:53:08;;;;;;;1.92;0.70;;;13.90;99.90;;;;;;20800043;28;20120;-38
2022/11/08 19:03:09;;;;;;;1.77;1.00;;;14.00;99.90;;;;;;20777604;28;20104;-39
2022/11/08 19:13:10;;;;;;;1.58;0.85;;;13.90;99.90;;;;;;20778837;28;20072;-38
2022/11/08 19:23:11;;;;;;;3.08;1.27;;;14.00;99.90;;;;;;20782218;28;20128;-38
2022/11/08 19:33:12;;;;;;;3.40;1.27;;;13.90;99.90;;;;;;20795833;28;20045;-38
2022/11/08 19:43:14;;;;;;;2.40;1.50;;;13.80;99.90;;;;;;20790061;28;20068;-38
2022/11/08 19:53:15;;;;;;;3.45;1.13;;;13.80;99.90;;;;;;20791448;28;20123;-38
2022/11/08 20:03:16;;;;;;;3.40;1.30;;;13.70;99.90;;;;;;20798277;28;20049;-38
2022/11/08 20:13:17;;;;;;;2.13;0.90;;;13.70;99.90;;;;;;20779008;28;20381;-38
2022/11/08 20:23:18;;;;;;;3.60;1.38;;;13.80;99.90;;;;;;20772645;28;21017;-38
2022/11/08 20:33:19;;;;;;;1.30;0.60;;;13.70;99.90;;;;;;20766599;28;20667;-38
2022/11/08 20:43:21;;;;;;;3.35;1.05;;;13.60;99.90;;;;;;20757710;28;20891;-38
2022/11/08 20:53:22;;;;;;;1.33;0.47;;;13.60;99.90;;;;;;20755990;28;20627;-38
2022/11/08 21:03:24;;;;;;;2.20;0.50;;;13.60;99.90;;;;;;20757393;28;20446;-38
2022/11/08 21:13:31;;;;;;;4.57;1.30;;;13.50;99.90;;;;;;20791539;28;20452;-38
2022/11/08 21:23:32;;;;;;;1.42;0.82;;;13.50;99.90;;;;;;20787841;28;20102;-38
2022/11/08 21:33:34;;;;;;;0.95;0.52;;;13.50;99.90;;;;;;20784413;28;20375;-38
2022/11/08 21:43:44;;;;;;;3.92;1.05;;;13.40;99.90;;;;;;20760604;28;20599;-38
2022/11/08 21:53:45;;;;;;;2.65;0.90;;;13.40;99.90;;;;;;20779065;28;21903;-39
2022/11/08 22:03:46;;;;;;;1.83;0.75;;;13.30;99.90;;;;;;20804028;28;20064;-38
2022/11/08 22:13:47;;;;;;;1.55;0.75;;;13.30;99.90;;;;;;20787856;28;20046;-38
2022/11/08 22:23:48;;;;;;;2.22;1.08;;;13.30;99.90;;;;;;20788868;28;20636;-38
2022/11/08 22:33:49;;;;;;;2.67;1.60;;;13.20;99.90;;;;;;20792386;28;20044;-38
2022/11/08 22:43:51;;;;;;;1.15;0.43;;;13.20;99.90;;;;;;20790427;28;20108;-38
2022/11/08 22:53:52;;;;;;;2.45;1.02;;;13.10;99.90;;;;;;20792491;28;20556;-38
2022/11/08 23:03:53;;;;;;;1.90;0.90;;;13.30;99.90;;;;;;20814566;28;20754;-38
2022/11/08 23:24:20;;;;;;;2.92;0.88;;;13.80;99.90;;;;;;20807849;28;20132;-38
2022/11/08 23:34:21;;;;;;;10.37;0.97;;;14.00;99.90;;;;;;20807731;28;20112;-38
2022/11/08 23:44:25;;;;;;;2.20;0.60;;;13.90;99.90;;;;;;20826448;28;20047;-38
2022/11/08 23:54:26;;;;;;;1.98;0.70;;;14.00;99.90;;;;;;20823908;28;20500;-38
